Time;durP1;ratioP1;P1;durP2;ratioP2;P2;SDS_P1;SDS_P2;PMS_P1;PMS_P2;Temp;Humidity;BMP_temperature;BMP_pressure;BME280_temperature;BME280_humidity;BME280_pressure;Samples;Min_cycle;Max_cycle;Signal;HPM_P1;HPM_P2
2023/09/21 00:00:22;;;;;;;7.93;2.90;;;;;;;14.52;100.00;100377.55;1429363;91;22964;-81
2023/09/21 00:02:50;;;;;;;5.20;2.67;;;;;;;14.50;100.00;100380.03;1408136;91;22308;-80
2023/09/21 00:05:21;;;;;;;3.00;2.10;;;;;;;14.47;100.00;100372.39;1428715;91;21562;-81
2023/09/21 00:07:48;;;;;;;6.93;2.47;;;;;;;14.41;100.00;100374.77;1425289;91;21519;-81
2023/09/21 00:10:15;;;;;;;7.03;2.43;;;;;;;14.45;100.00;100373.41;1426449;91;22270;-81
2023/09/21 00:12:42;;;;;;;7.93;3.13;;;;;;;14.45;100.00;100372.08;1406919;91;21450;-79
2023/09/21 00:15:12;;;;;;;8.07;3.07;;;;;;;14.44;100.00;100369.57;1422600;91;21977;-78
2023/09/21 00:17:39;;;;;;;3.17;2.40;;;;;;;14.40;100.00;100365.11;1427507;91;21642;-78
2023/09/21 00:22:55;;;;;;;5.50;2.33;;;;;;;14.29;100.00;100359.34;1429904;91;21554;-80
2023/09/21 00:25:23;;;;;;;2.93;2.13;;;;;;;14.21;100.00;100362.86;1422715;91;21332;-78
2023/09/21 00:27:49;;;;;;;4.60;2.20;;;;;;;14.14;100.00;100367.22;1433398;91;21405;-78
2023/09/21 00:30:16;;;;;;;4.97;2.07;;;;;;;14.09;100.00;100364.23;1432103;91;21442;-78
2023/09/21 00:32:42;;;;;;;2.73;2.30;;;;;;;14.06;100.00;100367.25;1434764;91;21582;-78
2023/09/21 00:35:11;;;;;;;6.33;3.23;;;;;;;14.06;100.00;100369.91;1429484;91;21673;-78
2023/09/21 00:37:39;;;;;;;5.20;3.07;;;;;;;14.07;100.00;100372.41;1427703;91;21471;-78
2023/09/21 00:40:21;;;;;;;4.33;2.60;;;;;;;14.09;100.00;100373.55;1423490;91;21361;-78
2023/09/21 00:42:48;;;;;;;6.67;2.57;;;;;;;14.08;100.00;100371.40;1432555;91;21597;-78
2023/09/21 00:45:15;;;;;;;4.67;2.70;;;;;;;14.07;100.00;100366.23;1431283;91;22839;-78
2023/09/21 00:47:54;;;;;;;6.33;2.77;;;;;;;14.08;100.00;100363.41;1429515;91;21324;-78
2023/09/21 00:50:24;;;;;;;8.40;2.73;;;;;;;14.09;100.00;100365.57;1429253;91;21516;-79
2023/09/21 00:52:53;;;;;;;5.22;3.05;;;;;;;14.03;100.00;100369.75;1433080;91;21546;-78
2023/09/21 00:55:30;;;;;;;7.27;2.07;;;;;;;13.96;100.00;100369.61;1429430;91;21876;-78
2023/09/21 00:58:01;;;;;;;6.43;2.13;;;;;;;13.90;100.00;100367.64;1430055;91;21568;-78
2023/09/21 01:00:30;;;;;;;7.50;2.40;;;;;;;13.86;100.00;100365.48;1424832;91;22196;-78
2023/09/21 01:03:07;;;;;;;4.33;1.90;;;;;;;13.87;100.00;100356.01;1430514;91;22182;-78
2023/09/21 01:05:31;;;;;;;12.23;2.03;;;;;;;13.89;100.00;100356.64;1434670;91;21509;-78
2023/09/21 01:07:57;;;;;;;12.37;2.53;;;;;;;13.87;100.00;100353.34;1429657;91;21413;-79
2023/09/21 01:10:24;;;;;;;6.53;2.17;;;;;;;13.89;100.00;100363.30;1426044;91;22498;-79
2023/09/21 01:12:51;;;;;;;3.53;2.43;;;;;;;13.89;100.00;100357.98;1433300;91;21450;-80
2023/09/21 01:15:21;;;;;;;2.43;1.90;;;;;;;13.87;100.00;100353.34;1423474;91;22403;-81
2023/09/21 01:17:47;;;;;;;26.70;4.10;;;;;;;13.83;100.00;100353.34;1435355;91;21485;-81
2023/09/21 01:20:18;;;;;;;3.43;2.20;;;;;;;13.77;100.00;100351.37;1421377;91;21265;-81
2023/09/21 01:22:57;;;;;;;4.27;2.60;;;;;;;13.74;100.00;100355.70;1435064;91;21404;-80
2023/09/21 01:25:27;;;;;;;;;;;;;;;13.77;100.00;100339.40;1429658;91;21678;-80
2023/09/21 01:27:53;;;;;;;9.13;2.57;;;;;;;13.79;100.00;100346.72;1425972;91;20288;-81
2023/09/21 01:30:19;;;;;;;8.80;2.63;;;;;;;13.75;100.00;100348.04;1424619;91;22367;-81
2023/09/21 01:32:46;;;;;;;7.33;3.30;;;;;;;13.71;100.00;100345.41;1429438;91;22388;-81
2023/09/21 01:35:17;;;;;;;3.37;2.77;;;;;;;13.75;100.00;100340.06;1428731;91;21420;-81
2023/09/21 01:37:40;;;;;;;6.27;2.63;;;;;;;13.75;100.00;100340.91;1405501;91;21478;-81
2023/09/21 01:40:15;;;;;;;3.97;2.63;;;;;;;13.73;100.00;100340.75;1426552;91;21383;-81
2023/09/21 01:42:36;;;;;;;3.40;2.58;;;;;;;13.70;100.00;100343.75;1434451;91;21590;-81
2023/09/21 01:45:03;;;;;;;4.67;3.03;;;;;;;13.64;100.00;100337.78;1429294;91;21377;-81
2023/09/21 01:47:30;;;;;;;6.47;3.10;;;;;;;13.57;100.00;100335.45;1429522;91;21390;-81
2023/09/21 01:49:56;;;;;;;4.80;2.90;;;;;;;13.50;100.00;100338.80;1432461;91;21456;-81
2023/09/21 01:52:22;;;;;;;4.27;2.90;;;;;;;13.47;100.00;100330.34;1429390;91;22446;-81
2023/09/21 01:54:49;;;;;;;8.07;2.97;;;;;;;13.48;100.00;100329.33;1426253;91;21561;-81
2023/09/21 01:57:15;;;;;;;7.10;3.27;;;;;;;13.46;100.00;100328.16;1426085;91;21568;-81
2023/09/21 01:59:41;;;;;;;6.80;2.97;;;;;;;13.46;100.00;100332.14;1433724;91;21384;-81
2023/09/21 02:02:07;;;;;;;10.80;3.27;;;;;;;13.44;100.00;100326.19;1432074;91;21546;-78
2023/09/21 02:04:33;;;;;;;4.40;2.90;;;;;;;13.45;100.00;100323.02;1400525;91;21480;-79
2023/09/21 02:06:59;;;;;;;5.27;2.50;;;;;;;13.44;100.00;100322.20;1423206;91;22485;-78
2023/09/21 02:09:26;;;;;;;8.77;3.13;;;;;;;13.44;100.00;100323.52;1428858;91;22367;-79
2023/09/21 02:11:52;;;;;;;5.70;3.30;;;;;;;13.43;100.00;100329.82;1426678;91;21398;-79
2023/09/21 02:14:19;;;;;;;6.60;3.00;;;;;;;13.40;100.00;100326.17;1428791;91;21479;-80
2023/09/21 02:16:47;;;;;;;7.20;2.80;;;;;;;13.38;100.00;100319.36;1429711;91;22441;-78
2023/09/21 02:19:14;;;;;;;6.97;3.77;;;;;;;13.36;100.00;100316.89;1423015;91;21444;-80
2023/09/21 02:21:40;;;;;;;8.00;3.00;;;;;;;13.34;100.00;100318.87;1433580;91;21405;-78
2023/09/21 02:24:08;;;;;;;5.63;3.13;;;;;;;13.32;100.00;100316.88;1434728;91;21927;-78
2023/09/21 02:26:37;;;;;;;6.13;2.87;;;;;;;13.30;100.00;100312.25;1432964;91;21369;-80
2023/09/21 02:29:04;;;;;;;7.53;3.40;;;;;;;13.28;100.00;100316.89;1429697;91;21676;-80
2023/09/21 02:31:31;;;;;;;3.97;2.40;;;;;;;13.23;100.00;100316.52;1422646;91;22292;-80
2023/09/21 02:33:57;;;;;;;8.23;2.30;;;;;;;13.24;100.00;100320.86;1434614;91;21324;-80
2023/09/21 02:36:23;;;;;;;2.93;1.53;;;;;;;13.26;100.00;100320.20;1429583;91;21412;-80
2023/09/21 02:38:49;;;;;;;5.13;2.37;;;;;;;13.23;100.00;100321.84;1422809;91;21412;-81
2023/09/21 02:41:15;;;;;;;5.97;2.23;;;;;;;13.20;100.00;100320.84;1405129;91;21362;-80
2023/09/21 02:43:41;;;;;;;2.83;2.17;;;;;;;13.16;100.00;100318.20;1432884;91;21539;-81
2023/09/21 02:46:08;;;;;;;9.27;2.77;;;;;;;13.15;100.00;100312.54;1429674;91;21479;-78
2023/09/21 02:48:35;;;;;;;3.70;2.07;;;;;;;13.11;100.00;100310.72;1407127;91;22433;-79
2023/09/21 02:51:04;;;;;;;3.37;3.07;;;;;;;13.04;100.00;100308.41;1425379;91;21421;-79
2023/09/21 02:53:30;;;;;;;5.20;2.20;;;;;;;12.97;100.00;100302.91;1437200;91;22432;-79
2023/09/21 02:55:58;;;;;;;3.73;2.60;;;;;;;12.93;100.00;100306.91;1410538;91;21442;-79
2023/09/21 02:58:26;;;;;;;5.10;3.30;;;;;;;12.94;100.00;100310.39;1431659;91;21487;-82
2023/09/21 03:00:52;;;;;;;6.13;2.57;;;;;;;12.95;100.00;100311.57;1431146;91;21383;-81
2023/09/21 03:03:22;;;;;;;4.60;2.53;;;;;;;12.95;100.00;100314.23;1426649;91;21398;-78
2023/09/21 03:05:51;;;;;;;4.45;3.37;;;;;;;12.93;100.00;100314.87;1421037;91;22588;-78
2023/09/21 03:08:20;;;;;;;10.20;2.90;;;;;;;12.92;100.00;100315.89;1438557;91;21604;-79
2023/09/21 03:10:50;;;;;;;2.80;2.45;;;;;;;12.92;100.00;100317.69;1430495;91;22278;-79
2023/09/21 03:13:18;;;;;;;3.33;2.67;;;;;;;12.84;100.00;100318.03;1430847;91;21539;-78
2023/09/21 03:15:51;;;;;;;6.00;2.80;;;;;;;12.83;100.00;100311.54;1428624;91;21339;-79
2023/09/21 03:18:19;;;;;;;6.83;3.00;;;;;;;12.85;100.00;100313.55;1434768;91;21674;-79
2023/09/21 03:20:46;;;;;;;2.97;2.67;;;;;;;12.81;100.00;100316.21;1428084;91;21459;-78
2023/09/21 03:23:15;;;;;;;4.13;2.50;;;;;;;12.77;100.00;100317.52;1432072;91;22479;-78
2023/09/21 03:25:50;;;;;;;6.83;2.97;;;;;;;12.77;100.00;100317.52;1429728;91;21615;-79
2023/09/21 03:28:19;;;;;;;4.40;2.90;;;;;;;12.77;100.00;100318.84;1426387;91;21545;-79
2023/09/21 03:30:51;;;;;;;7.93;3.13;;;;;;;12.75;100.00;100324.33;1430745;91;21456;-79
2023/09/21 03:33:21;;;;;;;3.30;3.00;;;;;;;12.81;100.00;100337.45;1429656;91;21486;-79
2023/09/21 03:35:48;;;;;;;4.78;3.12;;;;;;;12.83;100.00;100334.97;1430166;91;21531;-79
2023/09/21 03:38:18;;;;;;;7.90;3.00;;;;;;;12.83;100.00;100326.15;1404598;91;21575;-79
2023/09/21 03:40:45;;;;;;;4.95;3.58;;;;;;;12.81;100.00;100317.53;1428162;91;21400;-79
2023/09/21 03:43:12;;;;;;;12.77;3.33;;;;;;;12.80;100.00;100318.52;1427789;91;21612;-79
2023/09/21 03:45:40;;;;;;;4.37;2.63;;;;;;;12.79;100.00;100315.53;1429814;91;21502;-79
2023/09/21 03:48:08;;;;;;;5.10;2.80;;;;;;;12.79;100.00;100310.22;1433246;91;21539;-79
2023/09/21 03:50:36;;;;;;;5.33;2.67;;;;;;;12.80;100.00;100302.58;1428479;91;21546;-79
2023/09/21 03:53:08;;;;;;;11.63;2.67;;;;;;;12.82;100.00;100308.56;1430816;91;21405;-78
2023/09/21 03:55:36;;;;;;;7.10;4.30;;;;;;;12.82;100.00;100296.11;1430957;91;21413;-79
2023/09/21 03:58:03;;;;;;;5.17;2.90;;;;;;;12.82;100.00;100295.28;1426431;91;21428;-79
2023/09/21 04:03:02;;;;;;;8.50;3.83;;;;;;;12.76;100.00;100291.97;1432152;91;21600;-80
2023/09/21 04:05:31;;;;;;;5.67;3.13;;;;;;;12.71;100.00;100286.31;1429175;91;22307;-80
2023/09/21 04:07:58;;;;;;;5.60;3.30;;;;;;;12.65;100.00;100289.95;1432462;91;21476;-80
2023/09/21 04:10:26;;;;;;;6.47;3.47;;;;;;;12.60;100.00;100288.31;1428773;91;22558;-80
2023/09/21 04:12:55;;;;;;;12.37;3.93;;;;;;;12.60;100.00;100292.77;1413145;91;22353;-81
2023/09/21 04:15:25;;;;;;;5.60;3.10;;;;;;;12.61;100.00;100285.16;1420856;91;21597;-81
2023/09/21 04:17:53;;;;;;;5.00;3.60;;;;;;;12.58;100.00;100284.98;1422915;91;21561;-81
2023/09/21 04:20:21;;;;;;;9.30;3.83;;;;;;;12.58;100.00;100281.00;1431314;91;21384;-80
2023/09/21 04:22:50;;;;;;;7.40;4.37;;;;;;;12.60;100.00;100280.81;1431385;91;21527;-80
2023/09/21 04:25:18;;;;;;;4.23;3.30;;;;;;;12.60;100.00;100279.02;1433223;91;21362;-80
2023/09/21 04:27:48;;;;;;;7.90;3.93;;;;;;;12.62;100.00;100278.33;1431648;91;22478;-80
2023/09/21 04:30:17;;;;;;;8.95;3.33;;;;;;;12.60;100.00;100279.02;1402646;91;21479;-80
2023/09/21 04:32:46;;;;;;;5.63;3.17;;;;;;;12.58;100.00;100284.16;1411331;91;21413;-80
2023/09/21 04:35:14;;;;;;;7.87;3.87;;;;;;;12.54;100.00;100281.48;1431023;91;22262;-80
2023/09/21 04:37:43;;;;;;;5.90;3.10;;;;;;;12.52;100.00;100277.67;1421961;91;21383;-80
2023/09/21 04:40:12;;;;;;;11.83;3.77;;;;;;;12.49;100.00;100267.89;1428656;91;21331;-80
2023/09/21 04:42:40;;;;;;;11.40;3.60;;;;;;;12.49;100.00;100271.88;1428308;91;21509;-80
2023/09/21 04:45:12;;;;;;;5.87;3.67;;;;;;;12.50;100.00;100270.36;1412207;91;22351;-80
2023/09/21 04:47:40;;;;;;;6.57;4.13;;;;;;;12.52;100.00;100272.87;1435732;91;21339;-80
2023/09/21 04:50:14;;;;;;;4.00;2.90;;;;;;;12.55;100.00;100275.19;1433650;91;22087;-80
2023/09/21 04:52:40;;;;;;;13.00;4.37;;;;;;;12.61;100.00;100268.72;1431253;91;21376;-80
2023/09/21 04:55:08;;;;;;;4.90;3.43;;;;;;;12.68;100.00;100269.38;1435587;91;22374;-80
2023/09/21 04:57:36;;;;;;;4.60;3.30;;;;;;;12.71;100.00;100269.05;1431749;91;21377;-80
2023/09/21 05:00:10;;;;;;;5.53;3.53;;;;;;;12.76;100.00;100268.06;1435467;91;22388;-81
2023/09/21 05:02:36;;;;;;;13.67;3.67;;;;;;;12.80;100.00;100266.73;1426877;91;22360;-79
2023/09/21 05:05:03;;;;;;;5.23;3.60;;;;;;;12.86;100.00;100262.11;1424167;91;21444;-81
2023/09/21 05:07:30;;;;;;;9.03;3.60;;;;;;;12.93;100.00;100263.59;1424625;91;21599;-80
2023/09/21 05:09:56;;;;;;;6.10;3.67;;;;;;;13.01;100.00;100264.41;1424107;91;21583;-81
2023/09/21 05:12:23;;;;;;;14.80;4.83;;;;;;;13.12;100.00;100265.91;1432022;91;21405;-81
2023/09/21 05:14:50;;;;;;;11.67;3.67;;;;;;;13.22;100.00;100264.38;1414038;91;22471;-81
2023/09/21 05:17:21;;;;;;;3.80;3.03;;;;;;;13.34;100.00;100265.71;1432042;91;21420;-81
2023/09/21 05:19:49;;;;;;;9.13;3.40;;;;;;;13.43;100.00;100267.85;1422133;91;21679;-81
2023/09/21 05:22:15;;;;;;;4.40;3.47;;;;;;;13.54;100.00;100256.86;1431663;91;21390;-79
2023/09/21 05:24:41;;;;;;;5.37;3.37;;;;;;;13.64;100.00;100265.98;1425860;91;22172;-77
2023/09/21 05:27:08;;;;;;;4.53;3.17;;;;;;;13.70;100.00;100259.47;1427903;91;21414;-76
2023/09/21 05:29:37;;;;;;;4.10;3.00;;;;;;;13.79;100.00;100263.44;1420987;91;21634;-80
2023/09/21 05:32:05;;;;;;;4.57;2.90;;;;;;;13.85;100.00;100263.56;1427041;91;21449;-79
2023/09/21 05:34:32;;;;;;;9.20;4.20;;;;;;;13.98;100.00;100262.99;1428434;91;21441;-79
2023/09/21 05:36:58;;;;;;;8.80;3.37;;;;;;;14.12;100.00;100262.25;1429577;91;22314;-81
2023/09/21 05:39:24;;;;;;;6.73;3.73;;;;;;;14.29;100.00;100264.84;1436566;91;21605;-80
2023/09/21 05:41:51;;;;;;;5.70;3.57;;;;;;;14.42;100.00;100267.25;1434494;91;21428;-80
2023/09/21 05:44:21;;;;;;;8.47;3.60;;;;;;;14.53;100.00;100266.53;1432497;91;21383;-80
2023/09/21 05:46:51;;;;;;;6.63;3.70;;;;;;;14.66;100.00;100262.78;1435980;91;21435;-79
2023/09/21 05:49:24;;;;;;;12.53;4.22;;;;;;;14.76;100.00;100268.72;1428945;91;21547;-77
2023/09/21 05:51:56;;;;;;;12.67;3.70;;;;;;;14.86;100.00;100273.28;1426224;91;21625;-77
2023/09/21 05:54:24;;;;;;;5.07;3.20;;;;;;;14.98;100.00;100275.52;1426870;91;22687;-77
2023/09/21 05:56:52;;;;;;;8.53;3.37;;;;;;;15.04;100.00;100281.45;1425820;91;22849;-77
2023/09/21 05:59:22;;;;;;;4.27;3.47;;;;;;;15.11;100.00;100277.90;1435121;91;21398;-80
2023/09/21 06:01:48;;;;;;;4.80;3.57;;;;;;;15.25;100.00;100291.45;1432435;91;21575;-80
2023/09/21 06:04:20;;;;;;;10.77;3.43;;;;;;;15.38;100.00;100288.14;1436359;91;21444;-79
2023/09/21 06:06:46;;;;;;;14.30;3.73;;;;;;;15.48;100.00;100282.05;1423231;91;21487;-79
2023/09/21 06:09:19;;;;;;;5.70;2.73;;;;;;;15.58;100.00;100278.08;1426618;91;21553;-86
2023/09/21 06:11:43;;;;;;;4.93;3.60;;;;;;;15.68;100.00;100273.85;1428357;91;21642;-85
2023/09/21 06:14:09;;;;;;;5.23;3.23;;;;;;;15.82;100.00;100268.16;1435141;91;21553;-87
2023/09/21 06:16:35;;;;;;;5.30;3.40;;;;;;;15.95;100.00;100274.19;1423667;91;21590;-87
2023/09/21 06:19:02;;;;;;;4.97;3.73;;;;;;;16.02;100.00;100275.08;1429686;91;21531;-84
2023/09/21 06:21:30;;;;;;;5.10;3.20;;;;;;;16.11;100.00;100275.32;1429694;91;22481;-83
2023/09/21 06:23:57;;;;;;;8.10;3.20;;;;;;;16.26;100.00;100275.80;1410261;91;21457;-87
2023/09/21 06:26:24;;;;;;;4.07;2.90;;;;;;;16.29;100.00;100268.23;1429639;91;22197;-85
2023/09/21 06:28:50;;;;;;;4.60;3.00;;;;;;;16.37;100.00;100269.45;1429331;91;21406;-86
2023/09/21 06:31:20;;;;;;;6.33;4.10;;;;;;;16.48;100.00;100270.77;1431615;91;21649;-89
2023/09/21 06:33:45;;;;;;;6.23;3.33;;;;;;;16.61;100.00;100265.58;1428246;91;22761;-90
2023/09/21 06:36:20;;;;;;;7.00;2.67;;;;;;;16.78;100.00;100266.17;1423128;91;21346;-85
2023/09/21 06:38:49;;;;;;;8.77;3.40;;;;;;;16.94;100.00;100266.40;1428324;91;21435;-87
2023/09/21 06:41:15;;;;;;;5.40;3.47;;;;;;;17.07;100.00;100271.86;1432820;91;21583;-83
2023/09/21 06:43:45;;;;;;;9.73;3.30;;;;;;;17.18;100.00;100271.03;1434446;91;21480;-80
2023/09/21 06:46:12;;;;;;;5.93;3.70;;;;;;;17.27;100.00;100268.52;1426343;91;22366;-80
2023/09/21 06:48:44;;;;;;;6.87;3.20;;;;;;;17.44;100.00;100266.38;1425062;91;21567;-79
2023/09/21 06:51:08;;;;;;;4.65;3.25;;;;;;;17.59;100.00;100266.55;1429094;91;22484;-80
2023/09/21 06:53:36;;;;;;;6.58;3.67;;;;;;;17.68;100.00;100267.22;1362704;91;22338;-79
2023/09/21 06:56:03;;;;;;;4.45;3.00;;;;;;;17.76;100.00;100255.53;1357840;91;21362;-80
2023/09/21 06:58:30;;;;;;;8.08;3.37;;;;;;;17.85;100.00;100262.39;1355981;91;22161;-79
2023/09/21 07:01:00;;;;;;;6.05;3.80;;;;;;;17.95;100.00;100255.31;1357000;91;22198;-79
2023/09/21 07:03:27;;;;;;;6.40;3.83;;;;;;;17.97;100.00;100259.97;1357730;91;21258;-80
2023/09/21 07:05:53;;;;;;;9.90;4.72;;;;;;;18.15;100.00;100256.73;1357422;91;21286;-79
2023/09/21 07:08:20;;;;;;;3.70;2.50;;;;;;;18.34;100.00;100252.47;1357285;91;21252;-79
2023/09/21 07:10:48;;;;;;;5.62;3.70;;;;;;;18.50;100.00;100246.74;1356479;91;21399;-79
2023/09/21 07:13:18;;;;;;;6.05;3.67;;;;;;;18.60;100.00;100249.01;1374783;91;21545;-80
2023/09/21 07:15:43;;;;;;;9.20;3.65;;;;;;;18.69;100.00;100255.81;1425174;91;22418;-80
2023/09/21 07:18:12;;;;;;;5.75;3.55;;;;;;;18.77;100.00;100255.66;1426441;91;21593;-80
2023/09/21 07:20:38;;;;;;;15.40;3.83;;;;;;;18.93;100.00;100251.23;1428728;91;21531;-79
2023/09/21 07:23:04;;;;;;;4.72;2.95;;;;;;;19.04;100.00;100246.27;1428021;91;22507;-79
2023/09/21 07:25:30;;;;;;;7.92;3.25;;;;;;;19.19;100.00;100255.42;1433375;91;21406;-79
2023/09/21 07:27:57;;;;;;;4.25;3.58;;;;;;;19.37;100.00;100251.08;1428124;91;21583;-79
2023/09/21 07:30:25;;;;;;;11.63;3.70;;;;;;;19.54;100.00;100245.27;1431112;91;21443;-79
2023/09/21 07:32:57;;;;;;;6.22;3.50;;;;;;;19.69;100.00;100243.70;1433210;91;21579;-79
2023/09/21 07:35:24;;;;;;;6.75;4.05;;;;;;;19.79;100.00;100238.20;1428458;91;22434;-79
2023/09/21 07:37:51;;;;;;;5.80;3.50;;;;;;;19.90;100.00;100242.58;1423341;91;21450;-78
2023/09/21 07:40:21;;;;;;;5.03;3.30;;;;;;;19.95;100.00;100239.56;1430858;91;21495;-79
2023/09/21 07:42:51;;;;;;;16.00;4.08;;;;;;;20.05;100.00;100237.75;1420289;91;21613;-79
2023/09/21 07:45:24;;;;;;;5.28;3.08;;;;;;;20.23;100.00;100241.09;1432657;91;21383;-79
2023/09/21 07:51:56;;;;;;;4.65;3.40;;;;;;;20.66;100.00;100226.45;1424605;91;21546;-81
2023/09/21 07:54:22;;;;;;;4.80;2.33;;;;;;;20.89;100.00;100227.20;1428680;91;21390;-79
2023/09/21 07:56:49;;;;;;;6.75;2.75;;;;;;;20.96;100.00;100217.72;1428680;91;22545;-80
2023/09/21 07:59:15;;;;;;;4.80;2.72;;;;;;;21.16;100.00;100226.42;1424055;91;21560;-80
2023/09/21 08:01:42;;;;;;;5.42;2.70;;;;;;;21.32;100.00;100223.69;1429887;91;21542;-80
2023/09/21 08:04:11;;;;;;;10.40;3.02;;;;;;;21.45;100.00;100220.58;1424838;91;22449;-80
2023/09/21 08:06:38;;;;;;;8.45;2.60;;;;;;;21.52;100.00;100218.12;1424123;91;22001;-80
2023/09/21 08:09:04;;;;;;;5.72;2.22;;;;;;;21.57;100.00;100223.63;1431835;91;21361;-80
2023/09/21 08:11:31;;;;;;;6.45;2.00;;;;;;;21.65;100.00;100217.66;1422943;91;21471;-79
2023/09/21 08:13:59;;;;;;;2.87;1.92;;;;;;;21.77;100.00;100215.31;1505348;91;21451;-79
2023/09/21 08:16:27;;;;;;;3.65;2.17;;;;;;;21.90;100.00;100214.34;1357469;91;21281;-79
2023/09/21 08:18:53;;;;;;;2.98;2.50;;;;;;;22.08;100.00;100210.25;1506276;91;22379;-80
2023/09/21 08:21:19;;;;;;;4.47;2.50;;;;;;;22.25;100.00;100203.72;1357461;91;21485;-80
2023/09/21 08:23:46;;;;;;;5.65;2.35;;;;;;;22.42;100.00;100198.50;1357326;91;21258;-80
2023/09/21 08:26:13;;;;;;;5.45;2.50;;;;;;;22.53;100.00;100199.58;1357479;91;21428;-80
2023/09/21 08:28:43;;;;;;;3.75;1.70;;;;;;;22.66;100.00;100196.66;1358679;91;21406;-80
2023/09/21 08:31:10;;;;;;;6.45;2.05;;;;;;;22.84;100.00;100194.91;1433044;91;21427;-81
2023/09/21 08:33:36;;;;;;;8.03;2.10;;;;;;;22.98;100.00;100194.47;1428490;91;21390;-80
2023/09/21 08:36:03;;;;;;;3.85;2.40;;;;;;;23.16;100.00;100198.09;1431469;91;21398;-80
2023/09/21 08:38:30;;;;;;;6.85;2.10;;;;;;;23.31;100.00;100198.45;1427159;91;21413;-80
2023/09/21 08:40:59;;;;;;;6.22;2.25;;;;;;;23.47;100.00;100194.18;1429201;91;21450;-80
2023/09/21 08:47:39;;;;;;;2.92;1.70;;;;;;;23.71;100.00;100186.89;1508455;91;21363;-80
2023/09/21 08:50:10;;;;;;;3.45;1.75;;;;;;;23.82;100.00;100181.98;1440882;90;21708;-79
2023/09/21 08:52:37;;;;;;;2.77;1.90;;;;;;;24.00;100.00;100185.01;1440580;90;21554;-81
2023/09/21 08:55:06;;;;;;;5.42;2.05;;;;;;;24.10;100.00;100180.30;1450718;90;21376;-80
2023/09/21 08:57:34;;;;;;;5.45;2.02;;;;;;;24.27;100.00;100189.27;1445135;90;21472;-80
2023/09/21 09:00:17;;;;;;;3.27;2.12;;;;;;;24.41;100.00;100183.55;1443749;90;22389;-80
2023/09/21 09:02:37;;;;;;;4.25;2.17;;;;;;;24.54;100.00;100186.80;1433446;90;21634;-82
2023/09/21 09:05:07;;;;;;;9.45;2.12;;;;;;;24.59;100.00;100188.75;1441050;90;21576;-82
2023/09/21 09:07:41;;;;;;;6.87;2.17;;;;;;;24.69;100.00;100184.87;1440248;90;21385;-82
2023/09/21 09:10:13;;;;;;;4.80;2.42;;;;;;;24.82;100.00;100186.41;1515315;90;21215;-81
2023/09/21 09:12:46;;;;;;;5.20;2.25;;;;;;;24.96;100.00;100183.64;1366487;90;21288;-81
2023/09/21 09:15:13;;;;;;;3.15;1.60;;;;;;;25.10;100.00;100190.06;1369076;90;22348;-82
2023/09/21 09:17:40;;;;;;;4.58;1.90;;;;;;;25.22;100.00;100185.38;1367376;90;21348;-81
2023/09/21 09:20:07;;;;;;;9.53;1.92;;;;;;;25.34;100.00;100187.97;1415689;90;21539;-82
2023/09/21 09:22:35;;;;;;;8.15;2.15;;;;;;;25.45;100.00;100188.39;1441507;90;21376;-81
2023/09/21 09:32:08;;;;;;;4.67;1.85;;;;;;;25.74;100.00;100173.29;1343478;94;21372;-81
2023/09/21 09:34:36;;;;;;;4.58;1.55;;;;;;;25.86;100.00;100168.02;1449565;95;22276;-83
2023/09/21 09:37:03;;;;;;;5.65;1.85;;;;;;;25.93;100.00;100171.91;1311632;95;21305;-81
2023/09/21 09:39:29;;;;;;;4.47;1.90;;;;;;;26.03;100.00;100165.77;1376201;95;22537;-81
2023/09/21 09:41:55;;;;;;;3.05;1.60;;;;;;;26.14;100.00;100166.69;1375458;95;21646;-80
2023/09/21 09:44:25;;;;;;;4.90;1.95;;;;;;;26.20;100.00;100157.52;1385266;94;21460;-83
2023/09/21 09:46:57;;;;;;;2.98;1.60;;;;;;;26.31;100.00;100157.89;1374986;95;21610;-80
2023/09/21 09:49:28;;;;;;;5.70;1.70;;;;;;;26.40;100.00;100149.55;1326616;94;21652;-82
2023/09/21 09:52:00;;;;;;;2.62;1.52;;;;;;;26.46;100.00;100148.51;1362143;94;21459;-86
2023/09/21 09:54:31;;;;;;;5.72;2.10;;;;;;;26.58;100.00;100147.00;1449430;95;21246;-88
2023/09/21 09:56:59;;;;;;;4.20;1.60;;;;;;;26.67;100.00;100133.76;1449408;95;21364;-88
2023/09/21 09:59:28;;;;;;;2.67;1.42;;;;;;;26.72;100.00;100135.97;1426590;95;21364;-86
2023/09/21 10:01:56;;;;;;;5.53;1.47;;;;;;;26.77;100.00;100133.84;1312780;94;22252;-88
2023/09/21 10:04:22;;;;;;;2.33;1.50;;;;;;;26.78;87.05;100125.96;1350755;90;21518;-87
2023/09/21 10:06:49;;;;;;;1.80;1.50;;;;;;;26.81;80.75;100128.15;1350021;92;22110;-88
2023/09/21 10:09:15;;;;;;;2.80;1.30;;;;;;;26.87;78.81;100127.64;1368930;90;21377;-86
2023/09/21 10:11:46;;;;;;;3.77;1.87;;;;;;;26.89;75.71;100126.30;1375345;90;22551;-87
2023/09/21 10:14:17;;;;;;;3.60;1.30;;;;;;;26.93;59.13;100124.72;1442379;90;21399;-85
2023/09/21 10:16:56;;;;;;;4.92;1.32;;;;;;;26.95;53.45;100129.32;1438914;90;21627;-84
2023/09/21 10:19:36;;;;;;;3.47;1.40;;;;;;;27.04;52.70;100120.67;1438981;90;21317;-86
2023/09/21 10:21:59;;;;;;;1.42;1.32;;;;;;;27.10;50.71;100131.29;1521639;90;22220;-85
2023/09/21 10:24:30;;;;;;;7.58;1.85;;;;;;;27.11;51.49;100122.08;1367818;90;21273;-83
2023/09/21 10:27:03;;;;;;;4.58;1.50;;;;;;;27.20;52.46;100118.34;1365342;92;22411;-85
2023/09/21 10:29:36;;;;;;;4.40;1.47;;;;;;;27.26;51.94;100117.28;1365723;90;21510;-87
2023/09/21 10:32:09;;;;;;;4.92;1.40;;;;;;;27.32;52.66;100112.14;1401231;90;21317;-84
2023/09/21 10:34:41;;;;;;;7.40;1.52;;;;;;;27.39;52.14;100116.80;1522442;90;22147;-83
2023/09/21 10:37:15;;;;;;;2.58;1.70;;;;;;;27.45;51.64;100110.30;1366291;90;22398;-87
2023/09/21 10:39:43;;;;;;;2.27;1.35;;;;;;;27.50;51.34;100104.59;1522577;90;21406;-85
2023/09/21 10:42:15;;;;;;;1.62;1.15;;;;;;;27.51;51.14;100099.45;1520251;90;21318;-86
2023/09/21 10:45:00;;;;;;;5.87;1.40;;;;;;;27.52;50.07;100102.42;1522630;90;21201;-86
2023/09/21 10:47:43;;;;;;;5.67;1.90;;;;;;;27.57;51.21;100099.73;1516763;90;21436;-87
2023/09/21 10:50:17;;;;;;;3.35;1.77;;;;;;;27.66;51.10;100091.31;1440309;90;21465;-88
2023/09/21 10:52:55;;;;;;;2.72;1.60;;;;;;;27.78;50.97;100085.63;1441940;90;21339;-86
2023/09/21 10:55:21;;;;;;;4.15;1.20;;;;;;;27.78;50.75;100081.55;1441761;90;21362;-87
2023/09/21 10:57:50;;;;;;;2.00;1.07;;;;;;;27.86;50.83;100080.50;1440449;90;22471;-85
2023/09/21 11:00:20;;;;;;;7.17;1.60;;;;;;;27.95;50.71;100078.05;1366309;90;21281;-85
2023/09/21 11:02:49;;;;;;;5.72;1.42;;;;;;;27.97;48.11;100064.20;1370750;90;21599;-85
2023/09/21 11:05:18;;;;;;;6.03;1.30;;;;;;;28.04;48.74;100064.18;1366595;90;22065;-84
2023/09/21 11:07:54;;;;;;;1.80;1.25;;;;;;;28.12;48.35;100057.39;1365558;90;22369;-85
2023/09/21 11:10:21;;;;;;;2.15;1.00;;;;;;;28.21;48.46;100070.70;1509612;90;21193;-85
2023/09/21 11:12:48;;;;;;;2.20;1.37;;;;;;;28.16;47.14;100059.82;1369031;90;21503;-85
2023/09/21 11:15:18;;;;;;;3.50;1.52;;;;;;;28.19;47.42;100060.63;1368644;90;21296;-86
2023/09/21 11:17:45;;;;;;;2.75;1.42;;;;;;;28.23;47.66;100055.48;1371244;90;21473;-86
2023/09/21 11:20:20;;;;;;;3.35;1.50;;;;;;;28.22;46.16;100044.31;1498676;90;21245;-85
2023/09/21 11:22:48;;;;;;;6.37;1.67;;;;;;;28.24;46.32;100040.23;1522452;90;22190;-87
2023/09/21 11:25:20;;;;;;;5.78;1.60;;;;;;;28.26;42.59;100047.58;1367298;90;21408;-83
2023/09/21 11:27:45;;;;;;;1.77;1.30;;;;;;;28.34;42.27;100036.14;1365317;92;21533;-85
2023/09/21 11:30:13;;;;;;;4.83;1.40;;;;;;;28.41;42.05;100045.38;1368232;90;21236;-85
2023/09/21 11:32:46;;;;;;;4.92;1.25;;;;;;;28.50;42.18;100032.05;1373739;90;21266;-85
2023/09/21 11:35:18;;;;;;;5.70;2.80;;;;;;;28.61;42.05;100030.94;1504405;90;22812;-86
2023/09/21 11:37:47;;;;;;;2.02;1.22;;;;;;;28.73;42.11;100017.81;1439398;90;21347;-87
2023/09/21 11:40:15;;;;;;;1.95;1.40;;;;;;;28.87;41.74;100024.04;1438844;90;21591;-88
2023/09/21 11:42:45;;;;;;;2.65;1.30;;;;;;;28.94;41.51;100024.54;1441292;90;21383;-86